ANA658 RJOB-RJTT
Flight info
| Callsign | ANA658 |
|---|---|
| Flight time | 0h 52m |
| Altitude | 31000 |
| Route | OLIVE HYOGO SANDA Y289 SHTLE Y71 XAC |
| Aircraft | B738/M-SDE2E3FGHIRWXY/LB1 |
Departure
| Time | 2026-04-16 13:00 |
|---|---|
| Airport | Okayama Momotaro Airport (RJOB) |
Arrival
| Time | 2026-04-16 13:52 |
|---|---|
| Airport | Tokyo Haneda International Airport (RJTT) |
| Time | Latitude | Longitude | Altitude | Speed | Heading |
|---|---|---|---|---|---|
| 2026-04-16 12:48 | 34.75977 | 133.85386 | 796 ft | 0 kts | 329° |
| 2026-04-16 12:53 | 34.75971 | 133.85391 | 796 ft | 4 kts | 329° |
| 2026-04-16 12:53 | 34.75948 | 133.85408 | 796 ft | 4 kts | 329° |
| 2026-04-16 12:53 | 34.75927 | 133.85425 | 795 ft | 4 kts | 307° |
| 2026-04-16 12:53 | 34.75920 | 133.85453 | 795 ft | 4 kts | 258° |
| 2026-04-16 12:54 | 34.75930 | 133.85482 | 795 ft | 4 kts | 236° |
| 2026-04-16 12:54 | 34.75939 | 133.85498 | 795 ft | 0 kts | 239° |
| 2026-04-16 12:56 | 34.75939 | 133.85497 | 795 ft | 1 kts | 237° |
| 2026-04-16 12:57 | 34.75910 | 133.85485 | 794 ft | 8 kts | 187° |
| 2026-04-16 12:57 | 34.75845 | 133.85455 | 794 ft | 11 kts | 229° |
| 2026-04-16 12:57 | 34.75803 | 133.85372 | 794 ft | 12 kts | 240° |
| 2026-04-16 12:57 | 34.75758 | 133.85282 | 794 ft | 13 kts | 238° |
| 2026-04-16 12:58 | 34.75714 | 133.85191 | 797 ft | 12 kts | 239° |
| 2026-04-16 12:58 | 34.75670 | 133.85104 | 800 ft | 12 kts | 239° |
| 2026-04-16 12:58 | 34.75627 | 133.85018 | 802 ft | 12 kts | 231° |
| 2026-04-16 12:58 | 34.75551 | 133.85012 | 801 ft | 14 kts | 148° |
| 2026-04-16 12:59 | 34.75487 | 133.85095 | 801 ft | 14 kts | 94° |
| 2026-04-16 12:59 | 34.75584 | 133.85318 | 797 ft | 62 kts | 59° |
| 2026-04-16 12:59 | 34.75932 | 133.86024 | 793 ft | 130 kts | 59° |
| 2026-04-16 13:00 | 34.77065 | 133.88356 | 1789 ft | 169 kts | 58° |
| 2026-04-16 13:00 | 34.77665 | 133.89584 | 2683 ft | 170 kts | 60° |
| 2026-04-16 13:00 | 34.78321 | 133.90920 | 3158 ft | 200 kts | 60° |
| 2026-04-16 13:00 | 34.79067 | 133.92483 | 3439 ft | 228 kts | 68° |
| 2026-04-16 13:01 | 34.79246 | 133.94411 | 4001 ft | 236 kts | 94° |
| 2026-04-16 13:01 | 34.79098 | 133.96481 | 4555 ft | 251 kts | 95° |
| 2026-04-16 13:01 | 34.78933 | 133.98607 | 5554 ft | 253 kts | 95° |
| 2026-04-16 13:01 | 34.78763 | 134.00747 | 6539 ft | 256 kts | 95° |
| 2026-04-16 13:02 | 34.78595 | 134.02926 | 7384 ft | 261 kts | 95° |
| 2026-04-16 13:02 | 34.78448 | 134.05145 | 8248 ft | 266 kts | 90° |
| 2026-04-16 13:02 | 34.78587 | 134.07399 | 9100 ft | 269 kts | 83° |
| 2026-04-16 13:02 | 34.78863 | 134.09673 | 9921 ft | 274 kts | 81° |
| 2026-04-16 13:03 | 34.79170 | 134.12000 | 10487 ft | 288 kts | 81° |
| 2026-04-16 13:03 | 34.79496 | 134.14482 | 10670 ft | 314 kts | 81° |
| 2026-04-16 13:03 | 34.79848 | 134.17251 | 10879 ft | 338 kts | 81° |
| 2026-04-16 13:03 | 34.80204 | 134.20132 | 11365 ft | 349 kts | 81° |
| 2026-04-16 13:04 | 34.80558 | 134.23074 | 12063 ft | 353 kts | 81° |
| 2026-04-16 13:04 | 34.80909 | 134.26041 | 12766 ft | 357 kts | 81° |
| 2026-04-16 13:04 | 34.81256 | 134.29017 | 13417 ft | 362 kts | 81° |
| 2026-04-16 13:04 | 34.81609 | 134.32068 | 14045 ft | 367 kts | 81° |
| 2026-04-16 13:05 | 34.81965 | 134.35173 | 14603 ft | 373 kts | 81° |
| 2026-04-16 13:05 | 34.82325 | 134.38321 | 15123 ft | 379 kts | 81° |
| 2026-04-16 13:05 | 34.82689 | 134.41524 | 15654 ft | 385 kts | 81° |
| 2026-04-16 13:05 | 34.83059 | 134.44782 | 16195 ft | 391 kts | 81° |
| 2026-04-16 13:06 | 34.83434 | 134.48091 | 16711 ft | 397 kts | 81° |
| 2026-04-16 13:06 | 34.83813 | 134.51451 | 17231 ft | 403 kts | 81° |
| 2026-04-16 13:06 | 34.84195 | 134.54854 | 17733 ft | 409 kts | 81° |
| 2026-04-16 13:06 | 34.84584 | 134.58313 | 18227 ft | 415 kts | 81° |
| 2026-04-16 13:07 | 34.84978 | 134.61823 | 18677 ft | 421 kts | 81° |
| 2026-04-16 13:07 | 34.85375 | 134.65377 | 19138 ft | 426 kts | 81° |
| 2026-04-16 13:07 | 34.85774 | 134.68962 | 19625 ft | 429 kts | 80° |
| 2026-04-16 13:07 | 34.86176 | 134.72587 | 20088 ft | 434 kts | 80° |
| 2026-04-16 13:08 | 34.86582 | 134.76250 | 20542 ft | 439 kts | 80° |
| 2026-04-16 13:08 | 34.86990 | 134.79948 | 20982 ft | 443 kts | 80° |
| 2026-04-16 13:08 | 34.87403 | 134.83690 | 21424 ft | 447 kts | 80° |
| 2026-04-16 13:08 | 34.87817 | 134.87460 | 21852 ft | 452 kts | 80° |
| 2026-04-16 13:09 | 34.88234 | 134.91265 | 22281 ft | 456 kts | 80° |
| 2026-04-16 13:09 | 34.88639 | 134.94976 | 22677 ft | 460 kts | 80° |
| 2026-04-16 13:09 | 34.89062 | 134.98867 | 23089 ft | 464 kts | 79° |
| 2026-04-16 13:09 | 34.89487 | 135.02779 | 23492 ft | 468 kts | 79° |
| 2026-04-16 13:10 | 34.89914 | 135.06723 | 23859 ft | 472 kts | 79° |
| 2026-04-16 13:10 | 34.90343 | 135.10707 | 24214 ft | 475 kts | 79° |
| 2026-04-16 13:10 | 34.90773 | 135.14711 | 24585 ft | 478 kts | 79° |
| 2026-04-16 13:10 | 34.91205 | 135.18739 | 24928 ft | 481 kts | 79° |
| 2026-04-16 13:11 | 34.91638 | 135.22798 | 25258 ft | 485 kts | 79° |
| 2026-04-16 13:11 | 34.92067 | 135.26839 | 25736 ft | 471 kts | 79° |
| 2026-04-16 13:11 | 34.92480 | 135.30756 | 25788 ft | 463 kts | 79° |
| 2026-04-16 13:11 | 34.92885 | 135.34624 | 25785 ft | 458 kts | 80° |
| 2026-04-16 13:12 | 34.93032 | 135.38492 | 25775 ft | 456 kts | 90° |
| 2026-04-16 13:12 | 34.92845 | 135.42338 | 25794 ft | 453 kts | 92° |
| 2026-04-16 13:12 | 34.92597 | 135.46182 | 26084 ft | 457 kts | 92° |
| 2026-04-16 13:12 | 34.92333 | 135.50103 | 26089 ft | 471 kts | 92° |
| 2026-04-16 13:13 | 34.92069 | 135.54121 | 26193 ft | 481 kts | 92° |
| 2026-04-16 13:13 | 34.91810 | 135.58233 | 26262 ft | 492 kts | 92° |
| 2026-04-16 13:13 | 34.91555 | 135.62438 | 26345 ft | 501 kts | 92° |
| 2026-04-16 13:13 | 34.91302 | 135.66693 | 26580 ft | 506 kts | 91° |
| 2026-04-16 13:14 | 34.91051 | 135.70941 | 26915 ft | 508 kts | 91° |
| 2026-04-16 13:14 | 34.90794 | 135.75281 | 27242 ft | 510 kts | 91° |
| 2026-04-16 13:14 | 34.90538 | 135.79600 | 27528 ft | 513 kts | 91° |
| 2026-04-16 13:14 | 34.90277 | 135.83949 | 27799 ft | 516 kts | 91° |
| 2026-04-16 13:15 | 34.90013 | 135.88330 | 28066 ft | 520 kts | 91° |
| 2026-04-16 13:15 | 34.89746 | 135.92729 | 28376 ft | 522 kts | 91° |
| 2026-04-16 13:15 | 34.89476 | 135.97126 | 28782 ft | 521 kts | 91° |
| 2026-04-16 13:15 | 34.89204 | 136.01538 | 29235 ft | 521 kts | 91° |
| 2026-04-16 13:16 | 34.88931 | 136.05937 | 29652 ft | 520 kts | 91° |
| 2026-04-16 13:16 | 34.88657 | 136.10331 | 30024 ft | 521 kts | 91° |
| 2026-04-16 13:16 | 34.88382 | 136.14736 | 30360 ft | 522 kts | 91° |
| 2026-04-16 13:16 | 34.88105 | 136.19141 | 30731 ft | 521 kts | 91° |
| 2026-04-16 13:17 | 34.87827 | 136.23534 | 31095 ft | 520 kts | 91° |
| 2026-04-16 13:17 | 34.87261 | 136.32386 | 31132 ft | 528 kts | 91° |
| 2026-04-16 13:18 | 34.86684 | 136.41328 | 31129 ft | 538 kts | 91° |
| 2026-04-16 13:18 | 34.86082 | 136.50543 | 31123 ft | 547 kts | 91° |
| 2026-04-16 13:19 | 34.85471 | 136.59711 | 31091 ft | 537 kts | 91° |
| 2026-04-16 13:19 | 34.85168 | 136.64169 | 31082 ft | 520 kts | 91° |
| 2026-04-16 13:19 | 34.84873 | 136.68506 | 31083 ft | 513 kts | 90° |
| 2026-04-16 13:20 | 34.84291 | 136.77199 | 31112 ft | 519 kts | 90° |
| 2026-04-16 13:20 | 34.83695 | 136.85979 | 31106 ft | 518 kts | 91° |
| 2026-04-16 13:20 | 34.83394 | 136.90305 | 30825 ft | 509 kts | 91° |
| 2026-04-16 13:21 | 34.83096 | 136.94601 | 30248 ft | 508 kts | 91° |
| 2026-04-16 13:21 | 34.82743 | 136.98886 | 29544 ft | 510 kts | 94° |
| 2026-04-16 13:21 | 34.82282 | 137.03131 | 29274 ft | 501 kts | 95° |
| 2026-04-16 13:22 | 34.81264 | 137.11623 | 29136 ft | 515 kts | 95° |
| 2026-04-16 13:22 | 34.80247 | 137.20312 | 29107 ft | 518 kts | 95° |
| 2026-04-16 13:23 | 34.79262 | 137.28982 | 29111 ft | 516 kts | 94° |
| 2026-04-16 13:23 | 34.78285 | 137.37640 | 29124 ft | 519 kts | 94° |
| 2026-04-16 13:24 | 34.77755 | 137.46464 | 29135 ft | 528 kts | 88° |
| 2026-04-16 13:24 | 34.77530 | 137.55479 | 29132 ft | 537 kts | 87° |
| 2026-04-16 13:25 | 34.77276 | 137.64552 | 29118 ft | 537 kts | 88° |
| 2026-04-16 13:25 | 34.76952 | 137.73620 | 29124 ft | 536 kts | 88° |
| 2026-04-16 13:26 | 34.76600 | 137.82618 | 29130 ft | 535 kts | 88° |
| 2026-04-16 13:26 | 34.76238 | 137.91716 | 29128 ft | 535 kts | 88° |
| 2026-04-16 13:27 | 34.75878 | 138.00734 | 29136 ft | 534 kts | 88° |
| 2026-04-16 13:27 | 34.75516 | 138.09674 | 29128 ft | 533 kts | 88° |
| 2026-04-16 13:28 | 34.75146 | 138.18668 | 29126 ft | 532 kts | 88° |
| 2026-04-16 13:28 | 34.74769 | 138.27643 | 28893 ft | 531 kts | 88° |
| 2026-04-16 13:28 | 34.74578 | 138.32111 | 28619 ft | 527 kts | 88° |
| 2026-04-16 13:29 | 34.74387 | 138.36550 | 28364 ft | 524 kts | 88° |
| 2026-04-16 13:29 | 34.74195 | 138.40967 | 28106 ft | 522 kts | 88° |
| 2026-04-16 13:29 | 34.74003 | 138.45360 | 27854 ft | 520 kts | 88° |
| 2026-04-16 13:29 | 34.73810 | 138.49745 | 27600 ft | 518 kts | 88° |
| 2026-04-16 13:30 | 34.73617 | 138.54107 | 27350 ft | 516 kts | 88° |
| 2026-04-16 13:30 | 34.73423 | 138.58449 | 27095 ft | 513 kts | 89° |
| 2026-04-16 13:30 | 34.73228 | 138.62767 | 26707 ft | 510 kts | 89° |
| 2026-04-16 13:30 | 34.73033 | 138.67056 | 26218 ft | 506 kts | 89° |
| 2026-04-16 13:31 | 34.72838 | 138.71300 | 25719 ft | 500 kts | 89° |
| 2026-04-16 13:31 | 34.72644 | 138.75502 | 25226 ft | 495 kts | 89° |
| 2026-04-16 13:31 | 34.72451 | 138.79660 | 24742 ft | 491 kts | 89° |
| 2026-04-16 13:31 | 34.72258 | 138.83787 | 24230 ft | 486 kts | 89° |
| 2026-04-16 13:32 | 34.72066 | 138.87871 | 23736 ft | 481 kts | 89° |
| 2026-04-16 13:32 | 34.71876 | 138.91911 | 23174 ft | 476 kts | 89° |
| 2026-04-16 13:32 | 34.71690 | 138.95902 | 22661 ft | 467 kts | 87° |
| 2026-04-16 13:32 | 34.71802 | 138.99715 | 22478 ft | 435 kts | 76° |
| 2026-04-16 13:33 | 34.72351 | 139.03173 | 22153 ft | 414 kts | 71° |
| 2026-04-16 13:33 | 34.72986 | 139.06601 | 21442 ft | 408 kts | 70° |
| 2026-04-16 13:33 | 34.73620 | 139.09949 | 20728 ft | 404 kts | 71° |
| 2026-04-16 13:33 | 34.74236 | 139.13247 | 20121 ft | 397 kts | 71° |
| 2026-04-16 13:34 | 34.74830 | 139.16493 | 19541 ft | 389 kts | 71° |
| 2026-04-16 13:34 | 34.75403 | 139.19674 | 18961 ft | 382 kts | 71° |
| 2026-04-16 13:34 | 34.75963 | 139.22820 | 18364 ft | 376 kts | 71° |
| 2026-04-16 13:34 | 34.76509 | 139.25903 | 17709 ft | 369 kts | 71° |
| 2026-04-16 13:35 | 34.77040 | 139.28922 | 17152 ft | 361 kts | 71° |
| 2026-04-16 13:35 | 34.77556 | 139.31866 | 16702 ft | 350 kts | 71° |
| 2026-04-16 13:35 | 34.78055 | 139.34719 | 16331 ft | 339 kts | 71° |
| 2026-04-16 13:35 | 34.78537 | 139.37475 | 15979 ft | 329 kts | 71° |
| 2026-04-16 13:36 | 34.79009 | 139.40170 | 15638 ft | 322 kts | 71° |
| 2026-04-16 13:36 | 34.79474 | 139.42820 | 15277 ft | 320 kts | 71° |
| 2026-04-16 13:36 | 34.79947 | 139.45495 | 14935 ft | 331 kts | 71° |
| 2026-04-16 13:36 | 34.80439 | 139.48271 | 14544 ft | 339 kts | 72° |
| 2026-04-16 13:37 | 34.80927 | 139.51054 | 14027 ft | 333 kts | 70° |
| 2026-04-16 13:37 | 34.81754 | 139.53597 | 13415 ft | 316 kts | 53° |
| 2026-04-16 13:37 | 34.83040 | 139.55670 | 13013 ft | 300 kts | 44° |
| 2026-04-16 13:37 | 34.84534 | 139.57352 | 12668 ft | 286 kts | 37° |
| 2026-04-16 13:38 | 34.85539 | 139.58358 | 12447 ft | 280 kts | 37° |
| 2026-04-16 13:38 | 34.87540 | 139.60317 | 12020 ft | 272 kts | 37° |
| 2026-04-16 13:38 | 34.88518 | 139.61271 | 11814 ft | 273 kts | 37° |
| 2026-04-16 13:38 | 34.90551 | 139.63260 | 11360 ft | 293 kts | 37° |
| 2026-04-16 13:39 | 34.92148 | 139.64830 | 10996 ft | 293 kts | 38° |
| 2026-04-16 13:39 | 34.93203 | 139.65873 | 10772 ft | 285 kts | 38° |
| 2026-04-16 13:39 | 34.94691 | 139.67348 | 10660 ft | 266 kts | 38° |
| 2026-04-16 13:39 | 34.96096 | 139.68743 | 10524 ft | 255 kts | 38° |
| 2026-04-16 13:40 | 34.97440 | 139.70078 | 10415 ft | 246 kts | 38° |
| 2026-04-16 13:40 | 34.98774 | 139.71404 | 10344 ft | 253 kts | 38° |
| 2026-04-16 13:40 | 35.00146 | 139.72767 | 10237 ft | 253 kts | 38° |
| 2026-04-16 13:40 | 35.01491 | 139.74107 | 10161 ft | 245 kts | 38° |
| 2026-04-16 13:41 | 35.02797 | 139.75408 | 9989 ft | 239 kts | 38° |
| 2026-04-16 13:41 | 35.04081 | 139.76688 | 9684 ft | 238 kts | 38° |
| 2026-04-16 13:41 | 35.05364 | 139.77967 | 9369 ft | 238 kts | 38° |
| 2026-04-16 13:41 | 35.06627 | 139.79226 | 9063 ft | 238 kts | 38° |
| 2026-04-16 13:42 | 35.07904 | 139.80502 | 8763 ft | 237 kts | 38° |
| 2026-04-16 13:42 | 35.09178 | 139.81773 | 8480 ft | 236 kts | 39° |
| 2026-04-16 13:42 | 35.10461 | 139.83055 | 8200 ft | 235 kts | 39° |
| 2026-04-16 13:42 | 35.11723 | 139.84317 | 7911 ft | 235 kts | 39° |
| 2026-04-16 13:43 | 35.12969 | 139.85562 | 7624 ft | 235 kts | 39° |
| 2026-04-16 13:43 | 35.14247 | 139.86841 | 7369 ft | 233 kts | 39° |
| 2026-04-16 13:43 | 35.15481 | 139.88076 | 7111 ft | 232 kts | 39° |
| 2026-04-16 13:43 | 35.16725 | 139.89322 | 6839 ft | 231 kts | 39° |
| 2026-04-16 13:44 | 35.17968 | 139.90567 | 6569 ft | 231 kts | 39° |
| 2026-04-16 13:44 | 35.19208 | 139.91810 | 6268 ft | 230 kts | 38° |
| 2026-04-16 13:44 | 35.20447 | 139.93052 | 5990 ft | 230 kts | 38° |
| 2026-04-16 13:44 | 35.21684 | 139.94293 | 5692 ft | 230 kts | 37° |
| 2026-04-16 13:45 | 35.22923 | 139.95536 | 5414 ft | 230 kts | 37° |
| 2026-04-16 13:45 | 35.24155 | 139.96772 | 5137 ft | 229 kts | 36° |
| 2026-04-16 13:45 | 35.25491 | 139.97709 | 5004 ft | 217 kts | 10° |
| 2026-04-16 13:45 | 35.26917 | 139.97471 | 5013 ft | 209 kts | 338° |
| 2026-04-16 13:46 | 35.28188 | 139.96591 | 5003 ft | 210 kts | 334° |
| 2026-04-16 13:46 | 35.29454 | 139.95706 | 4997 ft | 208 kts | 336° |
| 2026-04-16 13:46 | 35.30712 | 139.94885 | 4995 ft | 201 kts | 336° |
| 2026-04-16 13:46 | 35.31893 | 139.94083 | 4997 ft | 187 kts | 335° |
| 2026-04-16 13:47 | 35.32998 | 139.93310 | 4894 ft | 184 kts | 335° |
| 2026-04-16 13:47 | 35.34141 | 139.92502 | 4556 ft | 188 kts | 335° |
| 2026-04-16 13:47 | 35.35269 | 139.91696 | 4278 ft | 184 kts | 335° |
| 2026-04-16 13:47 | 35.36367 | 139.90912 | 4005 ft | 180 kts | 335° |
| 2026-04-16 13:48 | 35.37434 | 139.90150 | 3761 ft | 175 kts | 336° |
| 2026-04-16 13:48 | 35.38468 | 139.89411 | 3544 ft | 169 kts | 336° |
| 2026-04-16 13:48 | 35.39514 | 139.88664 | 3297 ft | 165 kts | 337° |
| 2026-04-16 13:48 | 35.40506 | 139.87955 | 3080 ft | 165 kts | 338° |
| 2026-04-16 13:49 | 35.41501 | 139.87246 | 2852 ft | 167 kts | 339° |
| 2026-04-16 13:49 | 35.42513 | 139.86526 | 2622 ft | 169 kts | 339° |
| 2026-04-16 13:49 | 35.43522 | 139.85805 | 2396 ft | 171 kts | 339° |
| 2026-04-16 13:49 | 35.44554 | 139.85068 | 2145 ft | 172 kts | 339° |
| 2026-04-16 13:50 | 35.45577 | 139.84336 | 1916 ft | 169 kts | 339° |
| 2026-04-16 13:50 | 35.46598 | 139.83609 | 1694 ft | 172 kts | 338° |
| 2026-04-16 13:50 | 35.47643 | 139.82864 | 1455 ft | 173 kts | 337° |
| 2026-04-16 13:50 | 35.48645 | 139.82143 | 1238 ft | 160 kts | 338° |
| 2026-04-16 13:51 | 35.49579 | 139.81477 | 986 ft | 151 kts | 338° |
| 2026-04-16 13:51 | 35.50471 | 139.80842 | 778 ft | 147 kts | 337° |
| 2026-04-16 13:51 | 35.51362 | 139.80202 | 606 ft | 149 kts | 336° |
| 2026-04-16 13:51 | 35.52263 | 139.79556 | 390 ft | 150 kts | 336° |
| 2026-04-16 13:52 | 35.53144 | 139.78931 | 172 ft | 143 kts | 336° |
| 2026-04-16 13:52 | 35.53980 | 139.78335 | 27 ft | 136 kts | 333° |
| 2026-04-16 13:52 | 35.54631 | 139.77876 | 23 ft | 77 kts | 329° |
| 2026-04-16 13:52 | 35.54899 | 139.77690 | 20 ft | 31 kts | 335° |
| 2026-04-16 13:53 | 35.55096 | 139.77631 | 19 ft | 25 kts | 357° |
| 2026-04-16 13:53 | 35.55246 | 139.77629 | 21 ft | 20 kts | 360° |
| 2026-04-16 13:53 | 35.55360 | 139.77614 | 22 ft | 15 kts | 335° |
| 2026-04-16 13:53 | 35.55449 | 139.77550 | 22 ft | 15 kts | 330° |
| 2026-04-16 13:54 | 35.55535 | 139.77490 | 22 ft | 14 kts | 330° |
| 2026-04-16 13:54 | 35.55617 | 139.77432 | 22 ft | 13 kts | 330° |
| 2026-04-16 13:54 | 35.55696 | 139.77377 | 20 ft | 13 kts | 329° |
| 2026-04-16 13:54 | 35.55772 | 139.77323 | 23 ft | 13 kts | 335° |
| 2026-04-16 13:55 | 35.55849 | 139.77351 | 21 ft | 12 kts | 50° |
| 2026-04-16 13:55 | 35.55893 | 139.77438 | 22 ft | 12 kts | 59° |
| 2026-04-16 13:55 | 35.55935 | 139.77525 | 23 ft | 12 kts | 60° |
| 2026-04-16 13:55 | 35.55974 | 139.77609 | 24 ft | 11 kts | 60° |
| 2026-04-16 13:56 | 35.56013 | 139.77692 | 27 ft | 11 kts | 59° |
| 2026-04-16 13:56 | 35.56052 | 139.77773 | 24 ft | 12 kts | 60° |
| 2026-04-16 13:56 | 35.56097 | 139.77868 | 24 ft | 13 kts | 60° |
| 2026-04-16 13:56 | 35.56144 | 139.77969 | 25 ft | 13 kts | 59° |
| 2026-04-16 13:57 | 35.56186 | 139.78056 | 25 ft | 13 kts | 59° |
| 2026-04-16 13:57 | 35.56233 | 139.78155 | 25 ft | 13 kts | 59° |
| 2026-04-16 13:57 | 35.56277 | 139.78247 | 25 ft | 9 kts | 59° |
| 2026-04-16 13:58 | 35.56300 | 139.78297 | 24 ft | 2 kts | 60° |
| 2026-04-16 13:58 | 35.56308 | 139.78314 | 28 ft | 2 kts | 60° |
| 2026-04-16 13:58 | 35.56313 | 139.78323 | 27 ft | 1 kts | 60° |
| 2026-04-16 13:58 | 35.56318 | 139.78334 | 26 ft | 2 kts | 60° |
| 2026-04-16 13:59 | 35.56324 | 139.78347 | 25 ft | 2 kts | 60° |
| 2026-04-16 13:59 | 35.56334 | 139.78371 | 25 ft | 6 kts | 63° |
| 2026-04-16 13:59 | 35.56335 | 139.78439 | 24 ft | 9 kts | 116° |
| 2026-04-16 13:59 | 35.56280 | 139.78492 | 28 ft | 11 kts | 149° |
| 2026-04-16 14:00 | 35.56210 | 139.78542 | 23 ft | 13 kts | 150° |
| 2026-04-16 14:00 | 35.56128 | 139.78601 | 22 ft | 15 kts | 149° |
| 2026-04-16 14:00 | 35.56035 | 139.78668 | 24 ft | 16 kts | 150° |
| 2026-04-16 14:00 | 35.55938 | 139.78736 | 22 ft | 17 kts | 150° |
| 2026-04-16 14:01 | 35.55835 | 139.78809 | 23 ft | 17 kts | 149° |
| 2026-04-16 14:01 | 35.55734 | 139.78880 | 25 ft | 16 kts | 149° |
| 2026-04-16 14:01 | 35.55637 | 139.78948 | 25 ft | 16 kts | 151° |
| 2026-04-16 14:01 | 35.55544 | 139.79014 | 27 ft | 15 kts | 149° |
| 2026-04-16 14:02 | 35.55456 | 139.79078 | 26 ft | 15 kts | 149° |
| 2026-04-16 14:02 | 35.55370 | 139.79139 | 28 ft | 14 kts | 150° |
| 2026-04-16 14:02 | 35.55288 | 139.79196 | 26 ft | 13 kts | 149° |
| 2026-04-16 14:02 | 35.55211 | 139.79252 | 27 ft | 14 kts | 149° |
| 2026-04-16 14:03 | 35.55124 | 139.79314 | 28 ft | 14 kts | 149° |
| 2026-04-16 14:03 | 35.55040 | 139.79372 | 27 ft | 14 kts | 151° |
| 2026-04-16 14:03 | 35.54960 | 139.79431 | 28 ft | 13 kts | 149° |
| 2026-04-16 14:03 | 35.54881 | 139.79484 | 27 ft | 13 kts | 151° |
| 2026-04-16 14:04 | 35.54805 | 139.79538 | 28 ft | 13 kts | 150° |
| 2026-04-16 14:04 | 35.54724 | 139.79594 | 26 ft | 12 kts | 163° |
| 2026-04-16 14:04 | 35.54658 | 139.79546 | 23 ft | 12 kts | 238° |
| 2026-04-16 14:04 | 35.54617 | 139.79461 | 27 ft | 11 kts | 239° |
| 2026-04-16 14:05 | 35.54551 | 139.79428 | 25 ft | 11 kts | 159° |
| 2026-04-16 14:05 | 35.54474 | 139.79480 | 22 ft | 13 kts | 151° |
| 2026-04-16 14:05 | 35.54401 | 139.79532 | 21 ft | 9 kts | 149° |
| 2026-04-16 14:05 | 35.54369 | 139.79560 | 24 ft | 3 kts | 124° |
| 2026-04-16 14:06 | 35.54372 | 139.79589 | 20 ft | 6 kts | 70° |
| 2026-04-16 14:06 | 35.54391 | 139.79634 | 21 ft | 5 kts | 60° |
| 2026-04-16 14:06 | 35.54398 | 139.79647 | 21 ft | 0 kts | 59° |